Wan Hai 508 — 9VJJ6 — position and weather

sailwx.info

Track history (hours):
 
Tides and Currents Weather Stations Pressure Air Temp Water Temp Dewpoint Dewpoint Depression Visibility Wind Speed Wind Dir Waves Ship Positions

Wan Hai 508

Last reported at 2014-Dec-11 08:14 UTC. Time now 2014-Dec-22 21:20 UTC.
Position N 01°58' E 102°17'.
Warning: this ship's position is 11 days out of date.

Length 269 m; draft 10.5 m.

Type: Ship. MMSI: 565567000.

Date/timePositionNaut miles runAvg speedWind from/ knotsBaromVisibWave heightAir tempDewpointWater temp
2014-Dec-11 08:14N 01°58' E 102°17'1217.8
2014-Dec-11 07:33N 01°53' E 102°28'1717.4
2014-Dec-11 06:33N 01°45' E 102°44'6614.8
2014-Dec-11 02:07N 01°13' E 103°41'6 9.7
2014-Dec-11 01:33N 01°17' E 103°45'1 0.7
2014-Dec-10 23:32N 01°17' E 103°46'0 0.0
2014-Dec-10 22:32N 01°17' E 103°46'0 0.0
2014-Dec-10 21:29N 01°17' E 103°46'0 0.0
2014-Dec-10 20:14N 01°17' E 103°46'0 0.0
2014-Dec-10 19:32N 01°17' E 103°46'0 0.0
2014-Dec-10 17:23N 01°17' E 103°46'0 0.0
2014-Dec-10 16:26N 01°17' E 103°46'0 0.0
2014-Dec-10 15:29N 01°17' E 103°46'0 0.0
2014-Dec-10 14:26N 01°17' E 103°46'0 0.0
2014-Dec-10 13:32N 01°17' E 103°46'2 0.3
2014-Dec-10 07:33N 01°15' E 103°47'6 6.4
2014-Dec-10 06:33N 01°13' E 103°53'1313.0
2014-Dec-10 05:33N 01°17' E 104°06'  
2014-Dec-06 04:25N 21°53' E 113°55'166 3.9
2014-Dec-04 09:31N 22°51' E 116°43'15116.6
2014-Dec-04 00:26N 24°17' E 118°59'1615.8
2014-Dec-03 23:24N 24°27' E 119°12'34614.9
2014-Dec-03 00:10N 29°28' E 122°23'914.8
2014-Dec-02 23:33N 29°37' E 122°21'1010.1
2014-Dec-02 22:32N 29°46' E 122°17'1211.7
2014-Dec-02 21:34N 29°55' E 122°08'1212.2
2014-Dec-02 20:33N 29°57' E 121°54'2 0.7
2014-Dec-02 18:18N 29°56' E 121°52'0 0.0
2014-Dec-02 17:30N 29°56' E 121°52'0 0.0
2014-Dec-02 16:24N 29°56' E 121°52'0 0.0
2014-Dec-02 14:18N 29°56' E 121°52'0 0.0
2014-Dec-02 13:33N 29°56' E 121°52'0 0.0
2014-Dec-02 11:33N 29°56' E 121°52'8 8.0
2014-Dec-02 10:33N 29°56' E 122°02'1212.4
2014-Dec-02 09:33N 29°49' E 122°14'10 9.6
2014-Dec-02 08:33N 29°45' E 122°23'10 9.7
2014-Dec-02 07:30N 29°48' E 122°35'1415.3
2014-Dec-02 06:33N 29°59' E 122°45'2120.6
2014-Dec-02 05:33N 30°19' E 122°48'4816.0
2014-Dec-02 02:33N 31°05' E 122°31'1414.3
2014-Dec-02 01:33N 31°08' E 122°14'1515.1
2014-Dec-02 00:34N 31°15' E 121°59'1514.6
2014-Dec-01 23:33N 31°19' E 121°42'2 2.3
2014-Dec-01 22:33N 31°20' E 121°40'0 0.0
2014-Dec-01 21:33N 31°20' E 121°40'0 0.0
2014-Dec-01 20:33N 31°20' E 121°40'0 0.0
2014-Dec-01 19:33N 31°20' E 121°40'0 0.0
2014-Dec-01 18:33N 31°20' E 121°40'0 0.0
2014-Dec-01 17:33N 31°20' E 121°40'0 0.0
2014-Dec-01 16:33N 31°20' E 121°40'0 0.0
2014-Dec-01 15:33N 31°20' E 121°40'0 0.0
2014-Dec-01 14:33N 31°20' E 121°40'0 0.0
2014-Dec-01 13:33N 31°20' E 121°40'0 0.0
2014-Dec-01 12:33N 31°20' E 121°40'0 0.0
2014-Dec-01 11:33N 31°20' E 121°40'1 1.2
2014-Dec-01 10:34N 31°20' E 121°41'9 9.1
2014-Dec-01 09:33N 31°16' E 121°51'1110.6
2014-Dec-01 08:34N 31°14' E 122°03'  
Track history (hours):
 
Tides and Currents Weather Stations Pressure Air Temp Water Temp Dewpoint Dewpoint Depression Visibility Wind Speed Wind Dir Waves Ship Positions

Wan Hai 508

Last reported at 2014-Dec-11 08:14 UTC. Time now 2014-Dec-22 21:20 UTC.
Position N 01°58' E 102°17'.
Warning: this ship's position is 11 days out of date.

Length 269 m; draft 10.5 m.

Type: Ship. MMSI: 565567000.

Date/timePositionNaut miles runAvg speedWind from/ knotsBaromVisibWave heightAir tempDewpointWater temp
2014-Dec-11 08:14N 01°58' E 102°17'1217.8
2014-Dec-11 07:33N 01°53' E 102°28'1717.4
2014-Dec-11 06:33N 01°45' E 102°44'6614.8
2014-Dec-11 02:07N 01°13' E 103°41'6 9.7
2014-Dec-11 01:33N 01°17' E 103°45'1 0.7
2014-Dec-10 23:32N 01°17' E 103°46'0 0.0
2014-Dec-10 22:32N 01°17' E 103°46'0 0.0
2014-Dec-10 21:29N 01°17' E 103°46'0 0.0
2014-Dec-10 20:14N 01°17' E 103°46'0 0.0
2014-Dec-10 19:32N 01°17' E 103°46'0 0.0
2014-Dec-10 17:23N 01°17' E 103°46'0 0.0
2014-Dec-10 16:26N 01°17' E 103°46'0 0.0
2014-Dec-10 15:29N 01°17' E 103°46'0 0.0
2014-Dec-10 14:26N 01°17' E 103°46'0 0.0
2014-Dec-10 13:32N 01°17' E 103°46'2 0.3
2014-Dec-10 07:33N 01°15' E 103°47'6 6.4
2014-Dec-10 06:33N 01°13' E 103°53'1313.0
2014-Dec-10 05:33N 01°17' E 104°06'  
2014-Dec-06 04:25N 21°53' E 113°55'166 3.9
2014-Dec-04 09:31N 22°51' E 116°43'15116.6
2014-Dec-04 00:26N 24°17' E 118°59'1615.8
2014-Dec-03 23:24N 24°27' E 119°12'34614.9
2014-Dec-03 00:10N 29°28' E 122°23'914.8
2014-Dec-02 23:33N 29°37' E 122°21'1010.1
2014-Dec-02 22:32N 29°46' E 122°17'1211.7
2014-Dec-02 21:34N 29°55' E 122°08'1212.2
2014-Dec-02 20:33N 29°57' E 121°54'2 0.7
2014-Dec-02 18:18N 29°56' E 121°52'0 0.0
2014-Dec-02 17:30N 29°56' E 121°52'0 0.0
2014-Dec-02 16:24N 29°56' E 121°52'0 0.0
2014-Dec-02 14:18N 29°56' E 121°52'0 0.0
2014-Dec-02 13:33N 29°56' E 121°52'0 0.0
2014-Dec-02 11:33N 29°56' E 121°52'8 8.0
2014-Dec-02 10:33N 29°56' E 122°02'1212.4
2014-Dec-02 09:33N 29°49' E 122°14'10 9.6
2014-Dec-02 08:33N 29°45' E 122°23'10 9.7
2014-Dec-02 07:30N 29°48' E 122°35'1415.3
2014-Dec-02 06:33N 29°59' E 122°45'2120.6
2014-Dec-02 05:33N 30°19' E 122°48'4816.0
2014-Dec-02 02:33N 31°05' E 122°31'1414.3
2014-Dec-02 01:33N 31°08' E 122°14'1515.1
2014-Dec-02 00:34N 31°15' E 121°59'1514.6
2014-Dec-01 23:33N 31°19' E 121°42'2 2.3
2014-Dec-01 22:33N 31°20' E 121°40'0 0.0
2014-Dec-01 21:33N 31°20' E 121°40'0 0.0
2014-Dec-01 20:33N 31°20' E 121°40'0 0.0
2014-Dec-01 19:33N 31°20' E 121°40'0 0.0
2014-Dec-01 18:33N 31°20' E 121°40'0 0.0
2014-Dec-01 17:33N 31°20' E 121°40'0 0.0
2014-Dec-01 16:33N 31°20' E 121°40'0 0.0
2014-Dec-01 15:33N 31°20' E 121°40'0 0.0
2014-Dec-01 14:33N 31°20' E 121°40'0 0.0
2014-Dec-01 13:33N 31°20' E 121°40'0 0.0
2014-Dec-01 12:33N 31°20' E 121°40'0 0.0
2014-Dec-01 11:33N 31°20' E 121°40'1 1.2
2014-Dec-01 10:34N 31°20' E 121°41'9 9.1
2014-Dec-01 09:33N 31°16' E 121°51'1110.6
2014-Dec-01 08:34N 31°14' E 122°03'  

Dump ship's entire track history